NOZ8LE ENBR-EKCH
Flight info
| Callsign | NOZ8LE |
|---|---|
| Flight time | 1h 11m |
| Altitude | 35000 |
| Route | TUXIL DCT ZOL DCT TESPI |
| Aircraft | B738/M-SDE2E3FGHIRWXY/LB1 |
Departure
| Time | 2026-05-06 19:36 |
|---|---|
| Airport | Bergen Airport, Flesland (ENBR) |
Arrival
| Time | 2026-05-06 20:47 |
|---|---|
| Airport | Copenhagen Kastrup Airport (EKCH) |
| Time | Latitude | Longitude | Altitude | Speed | Heading |
|---|---|---|---|---|---|
| 2026-05-06 18:48 | 60.28963 | 5.22588 | 172 ft | 0 kts | 131° |
| 2026-05-06 19:23 | 60.28966 | 5.22581 | 172 ft | 3 kts | 131° |
| 2026-05-06 19:23 | 60.28984 | 5.22540 | 171 ft | 4 kts | 131° |
| 2026-05-06 19:24 | 60.28999 | 5.22506 | 170 ft | 1 kts | 131° |
| 2026-05-06 19:27 | 60.28995 | 5.22508 | 170 ft | 1 kts | 161° |
| 2026-05-06 19:28 | 60.28989 | 5.22493 | 169 ft | 1 kts | 247° |
| 2026-05-06 19:28 | 60.28997 | 5.22474 | 169 ft | 3 kts | 317° |
| 2026-05-06 19:28 | 60.29021 | 5.22437 | 168 ft | 6 kts | 313° |
| 2026-05-06 19:28 | 60.29054 | 5.22364 | 166 ft | 8 kts | 330° |
| 2026-05-06 19:29 | 60.29080 | 5.22259 | 162 ft | 10 kts | 296° |
| 2026-05-06 19:29 | 60.29144 | 5.22204 | 162 ft | 10 kts | 349° |
| 2026-05-06 19:29 | 60.29212 | 5.22182 | 162 ft | 10 kts | 351° |
| 2026-05-06 19:29 | 60.29277 | 5.22160 | 161 ft | 10 kts | 351° |
| 2026-05-06 19:30 | 60.29346 | 5.22137 | 159 ft | 11 kts | 350° |
| 2026-05-06 19:30 | 60.29443 | 5.22103 | 156 ft | 17 kts | 350° |
| 2026-05-06 19:30 | 60.29569 | 5.22061 | 150 ft | 20 kts | 351° |
| 2026-05-06 19:30 | 60.29709 | 5.22013 | 147 ft | 19 kts | 350° |
| 2026-05-06 19:31 | 60.29839 | 5.21972 | 150 ft | 19 kts | 351° |
| 2026-05-06 19:31 | 60.29966 | 5.21929 | 155 ft | 18 kts | 350° |
| 2026-05-06 19:31 | 60.30207 | 5.21847 | 163 ft | 17 kts | 351° |
| 2026-05-06 19:32 | 60.30321 | 5.21808 | 168 ft | 16 kts | 351° |
| 2026-05-06 19:32 | 60.30431 | 5.21772 | 172 ft | 16 kts | 350° |
| 2026-05-06 19:32 | 60.30537 | 5.21736 | 177 ft | 15 kts | 351° |
| 2026-05-06 19:32 | 60.30608 | 5.21712 | 179 ft | 9 kts | 350° |
| 2026-05-06 19:33 | 60.30658 | 5.21664 | 181 ft | 7 kts | 305° |
| 2026-05-06 19:33 | 60.30664 | 5.21597 | 181 ft | 5 kts | 264° |
| 2026-05-06 19:33 | 60.30662 | 5.21577 | 182 ft | 0 kts | 259° |
| 2026-05-06 19:34 | 60.30662 | 5.21572 | 182 ft | 3 kts | 259° |
| 2026-05-06 19:34 | 60.30655 | 5.21487 | 182 ft | 7 kts | 261° |
| 2026-05-06 19:34 | 60.30647 | 5.21407 | 183 ft | 5 kts | 245° |
| 2026-05-06 19:35 | 60.30616 | 5.21390 | 183 ft | 3 kts | 172° |
| 2026-05-06 19:35 | 60.30608 | 5.21393 | 182 ft | 2 kts | 170° |
| 2026-05-06 19:35 | 60.30540 | 5.21415 | 177 ft | 28 kts | 170° |
| 2026-05-06 19:35 | 60.30085 | 5.21567 | 160 ft | 102 kts | 171° |
| 2026-05-06 19:36 | 60.29173 | 5.21867 | 161 ft | 161 kts | 173° |
| 2026-05-06 19:36 | 60.28025 | 5.22190 | 793 ft | 163 kts | 175° |
| 2026-05-06 19:36 | 60.26857 | 5.22476 | 1508 ft | 173 kts | 171° |
| 2026-05-06 19:36 | 60.25643 | 5.22885 | 2102 ft | 189 kts | 171° |
| 2026-05-06 19:37 | 60.24246 | 5.23363 | 2389 ft | 216 kts | 171° |
| 2026-05-06 19:37 | 60.22684 | 5.23900 | 2675 ft | 238 kts | 171° |
| 2026-05-06 19:37 | 60.20985 | 5.24486 | 3094 ft | 257 kts | 171° |
| 2026-05-06 19:37 | 60.19786 | 5.24901 | 3618 ft | 260 kts | 171° |
| 2026-05-06 19:38 | 60.17406 | 5.25723 | 4736 ft | 264 kts | 172° |
| 2026-05-06 19:38 | 60.15580 | 5.26353 | 5542 ft | 267 kts | 172° |
| 2026-05-06 19:38 | 60.13728 | 5.26991 | 6000 ft | 269 kts | 172° |
| 2026-05-06 19:38 | 60.11879 | 5.27626 | 6096 ft | 273 kts | 172° |
| 2026-05-06 19:39 | 60.10025 | 5.28263 | 6101 ft | 271 kts | 172° |
| 2026-05-06 19:39 | 60.08159 | 5.28852 | 6102 ft | 270 kts | 174° |
| 2026-05-06 19:39 | 60.06290 | 5.29360 | 6100 ft | 270 kts | 174° |
| 2026-05-06 19:39 | 60.04442 | 5.29846 | 6092 ft | 271 kts | 174° |
| 2026-05-06 19:40 | 60.02573 | 5.30336 | 6107 ft | 271 kts | 174° |
| 2026-05-06 19:40 | 60.00696 | 5.30831 | 6105 ft | 273 kts | 173° |
| 2026-05-06 19:40 | 59.98806 | 5.31331 | 6102 ft | 274 kts | 173° |
| 2026-05-06 19:40 | 59.96904 | 5.31835 | 6108 ft | 276 kts | 173° |
| 2026-05-06 19:41 | 59.95020 | 5.32335 | 6099 ft | 277 kts | 173° |
| 2026-05-06 19:41 | 59.93069 | 5.32853 | 6296 ft | 282 kts | 173° |
| 2026-05-06 19:41 | 59.91147 | 5.33363 | 7136 ft | 280 kts | 174° |
| 2026-05-06 19:41 | 59.89202 | 5.33879 | 7942 ft | 282 kts | 174° |
| 2026-05-06 19:42 | 59.87233 | 5.34401 | 8694 ft | 287 kts | 174° |
| 2026-05-06 19:42 | 59.85268 | 5.34922 | 9433 ft | 291 kts | 175° |
| 2026-05-06 19:42 | 59.83247 | 5.35456 | 10167 ft | 295 kts | 175° |
| 2026-05-06 19:42 | 59.81157 | 5.36006 | 10509 ft | 313 kts | 175° |
| 2026-05-06 19:43 | 59.78918 | 5.36554 | 10748 ft | 332 kts | 178° |
| 2026-05-06 19:43 | 59.77365 | 5.36828 | 11074 ft | 338 kts | 179° |
| 2026-05-06 19:43 | 59.75008 | 5.37190 | 11836 ft | 339 kts | 180° |
| 2026-05-06 19:43 | 59.71874 | 5.37668 | 12871 ft | 341 kts | 180° |
| 2026-05-06 19:44 | 59.70298 | 5.37917 | 13380 ft | 344 kts | 181° |
| 2026-05-06 19:44 | 59.67900 | 5.38306 | 14115 ft | 347 kts | 181° |
| 2026-05-06 19:44 | 59.65481 | 5.38704 | 14822 ft | 350 kts | 181° |
| 2026-05-06 19:44 | 59.63022 | 5.39165 | 15528 ft | 355 kts | 180° |
| 2026-05-06 19:45 | 59.60584 | 5.39773 | 16206 ft | 359 kts | 179° |
| 2026-05-06 19:45 | 59.58087 | 5.40443 | 16894 ft | 363 kts | 179° |
| 2026-05-06 19:45 | 59.55558 | 5.41119 | 17552 ft | 367 kts | 179° |
| 2026-05-06 19:45 | 59.53012 | 5.41786 | 18229 ft | 371 kts | 180° |
| 2026-05-06 19:46 | 59.50436 | 5.42478 | 18840 ft | 377 kts | 177° |
| 2026-05-06 19:46 | 59.47885 | 5.44058 | 19381 ft | 393 kts | 161° |
| 2026-05-06 19:46 | 59.45557 | 5.46843 | 20030 ft | 403 kts | 148° |
| 2026-05-06 19:46 | 59.43426 | 5.50557 | 20604 ft | 411 kts | 142° |
| 2026-05-06 19:47 | 59.41343 | 5.54479 | 21123 ft | 417 kts | 141° |
| 2026-05-06 19:47 | 59.39241 | 5.58467 | 21654 ft | 421 kts | 141° |
| 2026-05-06 19:47 | 59.37134 | 5.62455 | 22209 ft | 424 kts | 141° |
| 2026-05-06 19:47 | 59.34993 | 5.66481 | 22744 ft | 428 kts | 141° |
| 2026-05-06 19:48 | 59.32827 | 5.70527 | 23269 ft | 431 kts | 142° |
| 2026-05-06 19:48 | 59.30635 | 5.74597 | 23766 ft | 435 kts | 142° |
| 2026-05-06 19:48 | 59.28449 | 5.78640 | 24208 ft | 437 kts | 142° |
| 2026-05-06 19:48 | 59.26223 | 5.82741 | 24682 ft | 439 kts | 142° |
| 2026-05-06 19:49 | 59.23984 | 5.86857 | 25178 ft | 440 kts | 142° |
| 2026-05-06 19:49 | 59.21772 | 5.90913 | 25627 ft | 442 kts | 143° |
| 2026-05-06 19:49 | 59.19513 | 5.95046 | 26070 ft | 444 kts | 143° |
| 2026-05-06 19:49 | 59.17252 | 5.99175 | 26463 ft | 446 kts | 142° |
| 2026-05-06 19:50 | 59.15012 | 6.03260 | 26999 ft | 445 kts | 142° |
| 2026-05-06 19:50 | 59.12744 | 6.07388 | 27417 ft | 447 kts | 143° |
| 2026-05-06 19:50 | 59.10457 | 6.11540 | 27779 ft | 450 kts | 143° |
| 2026-05-06 19:50 | 59.08152 | 6.15716 | 28149 ft | 453 kts | 143° |
| 2026-05-06 19:51 | 59.05871 | 6.19842 | 28520 ft | 455 kts | 143° |
| 2026-05-06 19:51 | 59.03546 | 6.24039 | 28898 ft | 457 kts | 143° |
| 2026-05-06 19:51 | 59.01207 | 6.28256 | 29261 ft | 460 kts | 143° |
| 2026-05-06 19:51 | 58.98851 | 6.32493 | 29609 ft | 462 kts | 143° |
| 2026-05-06 19:52 | 58.96489 | 6.36735 | 29941 ft | 464 kts | 143° |
| 2026-05-06 19:52 | 58.94115 | 6.40989 | 30250 ft | 466 kts | 144° |
| 2026-05-06 19:52 | 58.91726 | 6.45262 | 30546 ft | 467 kts | 143° |
| 2026-05-06 19:52 | 58.89362 | 6.49483 | 30921 ft | 466 kts | 143° |
| 2026-05-06 19:53 | 58.86976 | 6.53739 | 31280 ft | 466 kts | 143° |
| 2026-05-06 19:53 | 58.84591 | 6.57982 | 31540 ft | 467 kts | 143° |
| 2026-05-06 19:53 | 58.82196 | 6.62232 | 31882 ft | 466 kts | 143° |
| 2026-05-06 19:53 | 58.79786 | 6.66503 | 32222 ft | 466 kts | 143° |
| 2026-05-06 19:54 | 58.77412 | 6.70697 | 32532 ft | 466 kts | 143° |
| 2026-05-06 19:54 | 58.75015 | 6.74926 | 32812 ft | 467 kts | 143° |
| 2026-05-06 19:54 | 58.72614 | 6.79152 | 33131 ft | 467 kts | 143° |
| 2026-05-06 19:54 | 58.70248 | 6.83310 | 33469 ft | 466 kts | 143° |
| 2026-05-06 19:55 | 58.67833 | 6.87546 | 33761 ft | 467 kts | 142° |
| 2026-05-06 19:55 | 58.65452 | 6.91714 | 34020 ft | 467 kts | 142° |
| 2026-05-06 19:55 | 58.63068 | 6.95883 | 34555 ft | 458 kts | 143° |
| 2026-05-06 19:55 | 58.60715 | 6.99992 | 34945 ft | 455 kts | 143° |
| 2026-05-06 19:56 | 58.56003 | 7.08176 | 35021 ft | 462 kts | 143° |
| 2026-05-06 19:56 | 58.51244 | 7.16414 | 35010 ft | 459 kts | 143° |
| 2026-05-06 19:57 | 58.46494 | 7.24613 | 35008 ft | 456 kts | 143° |
| 2026-05-06 19:57 | 58.41811 | 7.32664 | 35003 ft | 454 kts | 143° |
| 2026-05-06 19:58 | 58.37129 | 7.40682 | 35010 ft | 451 kts | 143° |
| 2026-05-06 19:58 | 58.32437 | 7.48684 | 34994 ft | 451 kts | 144° |
| 2026-05-06 19:59 | 58.27773 | 7.56611 | 34993 ft | 451 kts | 144° |
| 2026-05-06 19:59 | 58.23099 | 7.64523 | 34975 ft | 452 kts | 143° |
| 2026-05-06 20:00 | 58.18393 | 7.72462 | 34972 ft | 453 kts | 144° |
| 2026-05-06 20:00 | 58.13675 | 7.80393 | 34986 ft | 454 kts | 144° |
| 2026-05-06 20:01 | 58.08927 | 7.88345 | 34971 ft | 455 kts | 144° |
| 2026-05-06 20:01 | 58.04194 | 7.96242 | 34992 ft | 456 kts | 144° |
| 2026-05-06 20:02 | 57.99587 | 8.03902 | 34985 ft | 456 kts | 144° |
| 2026-05-06 20:02 | 57.95304 | 8.11001 | 34981 ft | 456 kts | 144° |
| 2026-05-06 20:03 | 57.90938 | 8.18213 | 34977 ft | 454 kts | 144° |
| 2026-05-06 20:03 | 57.86475 | 8.25559 | 34977 ft | 453 kts | 144° |
| 2026-05-06 20:04 | 57.81722 | 8.33353 | 34980 ft | 452 kts | 144° |
| 2026-05-06 20:04 | 57.77004 | 8.41060 | 34980 ft | 451 kts | 144° |
| 2026-05-06 20:05 | 57.72268 | 8.48771 | 34980 ft | 450 kts | 144° |
| 2026-05-06 20:05 | 57.67561 | 8.56408 | 34978 ft | 449 kts | 145° |
| 2026-05-06 20:06 | 57.62826 | 8.64062 | 34948 ft | 448 kts | 145° |
| 2026-05-06 20:06 | 57.58137 | 8.71615 | 34977 ft | 446 kts | 145° |
| 2026-05-06 20:07 | 57.53434 | 8.79163 | 34984 ft | 445 kts | 145° |
| 2026-05-06 20:07 | 57.48754 | 8.86648 | 34989 ft | 445 kts | 145° |
| 2026-05-06 20:08 | 57.44056 | 8.94135 | 34992 ft | 444 kts | 145° |
| 2026-05-06 20:08 | 57.39351 | 9.01606 | 34972 ft | 444 kts | 145° |
| 2026-05-06 20:09 | 57.34672 | 9.09012 | 34989 ft | 444 kts | 146° |
| 2026-05-06 20:09 | 57.29980 | 9.16410 | 34985 ft | 443 kts | 146° |
| 2026-05-06 20:10 | 57.25303 | 9.23762 | 34998 ft | 443 kts | 146° |
| 2026-05-06 20:10 | 57.20589 | 9.31143 | 35001 ft | 443 kts | 146° |
| 2026-05-06 20:11 | 57.15893 | 9.38474 | 34999 ft | 443 kts | 146° |
| 2026-05-06 20:11 | 57.11170 | 9.45821 | 34997 ft | 444 kts | 146° |
| 2026-05-06 20:12 | 57.06465 | 9.53114 | 34995 ft | 443 kts | 146° |
| 2026-05-06 20:12 | 57.01732 | 9.60425 | 34920 ft | 441 kts | 146° |
| 2026-05-06 20:13 | 56.99394 | 9.64034 | 34615 ft | 434 kts | 146° |
| 2026-05-06 20:13 | 56.97133 | 9.67521 | 34379 ft | 425 kts | 146° |
| 2026-05-06 20:13 | 56.94881 | 9.70987 | 34137 ft | 419 kts | 146° |
| 2026-05-06 20:13 | 56.92649 | 9.74409 | 33885 ft | 416 kts | 146° |
| 2026-05-06 20:14 | 56.90436 | 9.77794 | 33614 ft | 413 kts | 146° |
| 2026-05-06 20:14 | 56.88227 | 9.81166 | 33337 ft | 411 kts | 146° |
| 2026-05-06 20:14 | 56.86056 | 9.84475 | 33068 ft | 409 kts | 146° |
| 2026-05-06 20:14 | 56.85314 | 9.85606 | 32976 ft | 409 kts | 146° |
| 2026-05-06 20:15 | 56.82065 | 9.90546 | 32576 ft | 407 kts | 147° |
| 2026-05-06 20:15 | 56.79888 | 9.93853 | 32306 ft | 405 kts | 147° |
| 2026-05-06 20:15 | 56.77744 | 9.97104 | 32020 ft | 404 kts | 147° |
| 2026-05-06 20:15 | 56.75573 | 10.00390 | 31748 ft | 403 kts | 147° |
| 2026-05-06 20:16 | 56.73410 | 10.03661 | 31508 ft | 402 kts | 147° |
| 2026-05-06 20:16 | 56.71273 | 10.06886 | 31247 ft | 401 kts | 147° |
| 2026-05-06 20:16 | 56.69114 | 10.10141 | 30966 ft | 400 kts | 147° |
| 2026-05-06 20:16 | 56.66997 | 10.13327 | 30723 ft | 399 kts | 147° |
| 2026-05-06 20:17 | 56.64860 | 10.16540 | 30475 ft | 397 kts | 147° |
| 2026-05-06 20:17 | 56.62725 | 10.19744 | 30224 ft | 396 kts | 147° |
| 2026-05-06 20:17 | 56.60615 | 10.22906 | 29945 ft | 391 kts | 147° |
| 2026-05-06 20:17 | 56.58542 | 10.26012 | 29597 ft | 386 kts | 147° |
| 2026-05-06 20:18 | 56.56483 | 10.29092 | 29243 ft | 381 kts | 147° |
| 2026-05-06 20:18 | 56.54438 | 10.32145 | 28873 ft | 377 kts | 147° |
| 2026-05-06 20:18 | 56.52418 | 10.35154 | 28499 ft | 374 kts | 147° |
| 2026-05-06 20:18 | 56.50417 | 10.38130 | 28149 ft | 370 kts | 147° |
| 2026-05-06 20:19 | 56.48459 | 10.41039 | 27781 ft | 366 kts | 147° |
| 2026-05-06 20:19 | 56.46494 | 10.43952 | 27413 ft | 363 kts | 147° |
| 2026-05-06 20:19 | 56.44547 | 10.46836 | 27096 ft | 359 kts | 147° |
| 2026-05-06 20:19 | 56.42618 | 10.49688 | 26738 ft | 356 kts | 147° |
| 2026-05-06 20:20 | 56.40730 | 10.52476 | 26395 ft | 354 kts | 147° |
| 2026-05-06 20:20 | 56.38826 | 10.55284 | 26036 ft | 351 kts | 147° |
| 2026-05-06 20:20 | 56.36934 | 10.58072 | 25722 ft | 348 kts | 147° |
| 2026-05-06 20:20 | 56.35079 | 10.60800 | 25388 ft | 346 kts | 147° |
| 2026-05-06 20:21 | 56.33209 | 10.63547 | 25049 ft | 344 kts | 147° |
| 2026-05-06 20:21 | 56.31350 | 10.66274 | 24728 ft | 342 kts | 147° |
| 2026-05-06 20:21 | 56.29537 | 10.68931 | 24403 ft | 340 kts | 147° |
| 2026-05-06 20:21 | 56.27702 | 10.71617 | 24076 ft | 338 kts | 147° |
| 2026-05-06 20:22 | 56.25873 | 10.74291 | 23747 ft | 337 kts | 147° |
| 2026-05-06 20:22 | 56.24052 | 10.76949 | 23378 ft | 335 kts | 147° |
| 2026-05-06 20:22 | 56.22264 | 10.79555 | 23007 ft | 334 kts | 147° |
| 2026-05-06 20:22 | 56.20465 | 10.82176 | 22667 ft | 331 kts | 147° |
| 2026-05-06 20:23 | 56.18673 | 10.84783 | 22339 ft | 328 kts | 146° |
| 2026-05-06 20:23 | 56.16902 | 10.87356 | 22018 ft | 327 kts | 146° |
| 2026-05-06 20:23 | 56.15234 | 10.89776 | 21722 ft | 327 kts | 146° |
| 2026-05-06 20:23 | 56.13502 | 10.92285 | 21400 ft | 329 kts | 146° |
| 2026-05-06 20:24 | 56.11830 | 10.94697 | 21121 ft | 338 kts | 146° |
| 2026-05-06 20:24 | 56.09973 | 10.97377 | 20780 ft | 343 kts | 146° |
| 2026-05-06 20:24 | 56.08112 | 11.00064 | 20407 ft | 341 kts | 145° |
| 2026-05-06 20:24 | 56.06268 | 11.02729 | 20094 ft | 339 kts | 145° |
| 2026-05-06 20:25 | 56.04458 | 11.05340 | 19754 ft | 336 kts | 145° |
| 2026-05-06 20:25 | 56.02640 | 11.07958 | 19428 ft | 334 kts | 144° |
| 2026-05-06 20:25 | 56.00829 | 11.10562 | 19104 ft | 332 kts | 144° |
| 2026-05-06 20:25 | 55.99026 | 11.13150 | 18780 ft | 330 kts | 144° |
| 2026-05-06 20:26 | 55.97247 | 11.15700 | 18461 ft | 329 kts | 144° |
| 2026-05-06 20:26 | 55.95473 | 11.18239 | 18123 ft | 328 kts | 144° |
| 2026-05-06 20:26 | 55.93695 | 11.20781 | 17757 ft | 326 kts | 144° |
| 2026-05-06 20:26 | 55.91921 | 11.23314 | 17414 ft | 324 kts | 144° |
| 2026-05-06 20:27 | 55.90187 | 11.25788 | 17094 ft | 322 kts | 144° |
| 2026-05-06 20:27 | 55.88443 | 11.28272 | 16776 ft | 319 kts | 144° |
| 2026-05-06 20:27 | 55.86709 | 11.30738 | 16459 ft | 317 kts | 144° |
| 2026-05-06 20:27 | 55.84994 | 11.33177 | 16147 ft | 315 kts | 143° |
| 2026-05-06 20:28 | 55.83282 | 11.35609 | 15834 ft | 312 kts | 143° |
| 2026-05-06 20:28 | 55.81585 | 11.38015 | 15530 ft | 310 kts | 143° |
| 2026-05-06 20:28 | 55.79912 | 11.40384 | 15226 ft | 309 kts | 143° |
| 2026-05-06 20:28 | 55.78292 | 11.42900 | 14909 ft | 309 kts | 130° |
| 2026-05-06 20:29 | 55.77315 | 11.46230 | 14649 ft | 310 kts | 105° |
| 2026-05-06 20:29 | 55.76993 | 11.50035 | 14430 ft | 311 kts | 96° |
| 2026-05-06 20:29 | 55.76793 | 11.53867 | 14191 ft | 313 kts | 95° |
| 2026-05-06 20:29 | 55.76604 | 11.57700 | 13956 ft | 315 kts | 95° |
| 2026-05-06 20:30 | 55.76406 | 11.61596 | 13715 ft | 315 kts | 95° |
| 2026-05-06 20:30 | 55.75983 | 11.69378 | 13164 ft | 316 kts | 96° |
| 2026-05-06 20:30 | 55.75766 | 11.73219 | 12901 ft | 315 kts | 96° |
| 2026-05-06 20:31 | 55.75545 | 11.77078 | 12629 ft | 311 kts | 96° |
| 2026-05-06 20:31 | 55.75326 | 11.80876 | 12360 ft | 307 kts | 96° |
| 2026-05-06 20:31 | 55.75108 | 11.84624 | 12094 ft | 303 kts | 96° |
| 2026-05-06 20:31 | 55.74893 | 11.88303 | 11836 ft | 301 kts | 96° |
| 2026-05-06 20:32 | 55.74675 | 11.92002 | 11579 ft | 299 kts | 96° |
| 2026-05-06 20:32 | 55.74458 | 11.95664 | 11316 ft | 297 kts | 96° |
| 2026-05-06 20:32 | 55.74244 | 11.99272 | 11071 ft | 296 kts | 96° |
| 2026-05-06 20:32 | 55.74027 | 12.02906 | 10827 ft | 294 kts | 96° |
| 2026-05-06 20:33 | 55.73810 | 12.06524 | 10576 ft | 293 kts | 96° |
| 2026-05-06 20:33 | 55.73596 | 12.10072 | 10335 ft | 292 kts | 95° |
| 2026-05-06 20:33 | 55.73377 | 12.13681 | 10090 ft | 290 kts | 95° |
| 2026-05-06 20:33 | 55.73162 | 12.17203 | 9785 ft | 289 kts | 96° |
| 2026-05-06 20:34 | 55.72945 | 12.20756 | 9411 ft | 289 kts | 95° |
| 2026-05-06 20:34 | 55.72727 | 12.24311 | 9049 ft | 289 kts | 95° |
| 2026-05-06 20:34 | 55.72507 | 12.27861 | 8698 ft | 288 kts | 95° |
| 2026-05-06 20:34 | 55.72288 | 12.31398 | 8351 ft | 288 kts | 95° |
| 2026-05-06 20:35 | 55.72071 | 12.34867 | 8009 ft | 287 kts | 95° |
| 2026-05-06 20:35 | 55.71850 | 12.38400 | 7662 ft | 286 kts | 95° |
| 2026-05-06 20:35 | 55.71629 | 12.41910 | 7321 ft | 285 kts | 95° |
| 2026-05-06 20:35 | 55.71407 | 12.45412 | 6983 ft | 284 kts | 95° |
| 2026-05-06 20:36 | 55.71192 | 12.48856 | 6645 ft | 283 kts | 93° |
| 2026-05-06 20:36 | 55.71413 | 12.52302 | 6276 ft | 280 kts | 68° |
| 2026-05-06 20:36 | 55.72241 | 12.55394 | 5948 ft | 277 kts | 62° |
| 2026-05-06 20:36 | 55.73117 | 12.58385 | 5598 ft | 275 kts | 62° |
| 2026-05-06 20:37 | 55.73997 | 12.61413 | 5253 ft | 274 kts | 62° |
| 2026-05-06 20:37 | 55.74922 | 12.64357 | 4959 ft | 271 kts | 52° |
| 2026-05-06 20:37 | 55.76244 | 12.66615 | 4838 ft | 261 kts | 40° |
| 2026-05-06 20:37 | 55.77574 | 12.68611 | 4910 ft | 242 kts | 40° |
| 2026-05-06 20:38 | 55.78818 | 12.70508 | 4793 ft | 227 kts | 41° |
| 2026-05-06 20:38 | 55.79966 | 12.72280 | 4683 ft | 214 kts | 41° |
| 2026-05-06 20:38 | 55.81057 | 12.73974 | 4572 ft | 202 kts | 41° |
| 2026-05-06 20:38 | 55.82098 | 12.75595 | 4284 ft | 199 kts | 42° |
| 2026-05-06 20:39 | 55.83120 | 12.77189 | 4117 ft | 192 kts | 42° |
| 2026-05-06 20:39 | 55.84116 | 12.78747 | 3986 ft | 190 kts | 43° |
| 2026-05-06 20:39 | 55.85088 | 12.80350 | 3831 ft | 193 kts | 45° |
| 2026-05-06 20:39 | 55.86063 | 12.82014 | 3701 ft | 195 kts | 46° |
| 2026-05-06 20:40 | 55.86939 | 12.83833 | 3585 ft | 190 kts | 69° |
| 2026-05-06 20:40 | 55.86931 | 12.86056 | 3560 ft | 183 kts | 115° |
| 2026-05-06 20:40 | 55.86154 | 12.87873 | 3498 ft | 187 kts | 133° |
| 2026-05-06 20:40 | 55.85215 | 12.89505 | 3373 ft | 189 kts | 135° |
| 2026-05-06 20:41 | 55.84271 | 12.91119 | 3257 ft | 186 kts | 135° |
| 2026-05-06 20:41 | 55.83358 | 12.92674 | 3212 ft | 183 kts | 135° |
| 2026-05-06 20:41 | 55.82435 | 12.94241 | 3164 ft | 185 kts | 135° |
| 2026-05-06 20:41 | 55.81463 | 12.95783 | 3029 ft | 187 kts | 147° |
| 2026-05-06 20:42 | 55.80230 | 12.96162 | 2997 ft | 186 kts | 194° |
| 2026-05-06 20:42 | 55.79218 | 12.94733 | 3011 ft | 193 kts | 237° |
| 2026-05-06 20:42 | 55.78530 | 12.92669 | 3000 ft | 198 kts | 231° |
| 2026-05-06 20:42 | 55.77660 | 12.90791 | 2991 ft | 195 kts | 226° |
| 2026-05-06 20:43 | 55.76753 | 12.88998 | 2987 ft | 194 kts | 223° |
| 2026-05-06 20:43 | 55.75790 | 12.87327 | 2982 ft | 193 kts | 220° |
| 2026-05-06 20:43 | 55.74805 | 12.85757 | 2989 ft | 192 kts | 219° |
| 2026-05-06 20:43 | 55.73799 | 12.84193 | 2966 ft | 191 kts | 218° |
| 2026-05-06 20:44 | 55.72806 | 12.82657 | 2770 ft | 187 kts | 218° |
| 2026-05-06 20:44 | 55.71842 | 12.81166 | 2520 ft | 184 kts | 218° |
| 2026-05-06 20:44 | 55.70887 | 12.79689 | 2261 ft | 178 kts | 218° |
| 2026-05-06 20:44 | 55.69976 | 12.78279 | 2033 ft | 168 kts | 218° |
| 2026-05-06 20:45 | 55.69111 | 12.76939 | 1851 ft | 161 kts | 218° |
| 2026-05-06 20:45 | 55.68289 | 12.75666 | 1584 ft | 154 kts | 217° |
| 2026-05-06 20:45 | 55.67488 | 12.74427 | 1366 ft | 151 kts | 217° |
| 2026-05-06 20:45 | 55.66696 | 12.73201 | 1160 ft | 151 kts | 217° |
| 2026-05-06 20:46 | 55.65912 | 12.71988 | 955 ft | 151 kts | 217° |
| 2026-05-06 20:46 | 55.65105 | 12.70754 | 768 ft | 155 kts | 219° |
| 2026-05-06 20:46 | 55.64311 | 12.69445 | 587 ft | 156 kts | 217° |
| 2026-05-06 20:46 | 55.63494 | 12.68223 | 348 ft | 155 kts | 218° |
| 2026-05-06 20:47 | 55.62693 | 12.66994 | 120 ft | 151 kts | 218° |
| 2026-05-06 20:47 | 55.61926 | 12.65843 | 24 ft | 127 kts | 219° |
| 2026-05-06 20:47 | 55.61430 | 12.65029 | 23 ft | 54 kts | 221° |
| 2026-05-06 20:47 | 55.61291 | 12.64749 | 26 ft | 28 kts | 240° |
| 2026-05-06 20:48 | 55.61246 | 12.64560 | 24 ft | 3 kts | 251° |
| 2026-05-06 20:48 | 55.61240 | 12.64527 | 23 ft | 3 kts | 250° |
| 2026-05-06 20:48 | 55.61222 | 12.64437 | 23 ft | 11 kts | 253° |
| 2026-05-06 20:48 | 55.61202 | 12.64305 | 25 ft | 11 kts | 252° |
| 2026-05-06 20:49 | 55.61196 | 12.64173 | 25 ft | 11 kts | 291° |
| 2026-05-06 20:49 | 55.61258 | 12.64111 | 23 ft | 11 kts | 358° |
| 2026-05-06 20:49 | 55.61323 | 12.64160 | 23 ft | 10 kts | 33° |
| 2026-05-06 20:49 | 55.61382 | 12.64229 | 24 ft | 11 kts | 33° |
| 2026-05-06 20:50 | 55.61457 | 12.64313 | 23 ft | 14 kts | 32° |
| 2026-05-06 20:50 | 55.61534 | 12.64403 | 25 ft | 13 kts | 33° |
| 2026-05-06 20:50 | 55.61609 | 12.64487 | 23 ft | 13 kts | 33° |
| 2026-05-06 20:50 | 55.61684 | 12.64564 | 23 ft | 12 kts | 15° |
| 2026-05-06 20:51 | 55.61768 | 12.64553 | 23 ft | 12 kts | 348° |
| 2026-05-06 20:51 | 55.61849 | 12.64525 | 23 ft | 12 kts | 348° |
| 2026-05-06 20:51 | 55.61928 | 12.64498 | 23 ft | 11 kts | 349° |
| 2026-05-06 20:51 | 55.62005 | 12.64473 | 23 ft | 11 kts | 350° |
| 2026-05-06 20:52 | 55.62080 | 12.64449 | 23 ft | 11 kts | 350° |
| 2026-05-06 20:52 | 55.62152 | 12.64427 | 23 ft | 11 kts | 350° |
| 2026-05-06 20:52 | 55.62228 | 12.64396 | 21 ft | 11 kts | 334° |
| 2026-05-06 20:52 | 55.62278 | 12.64293 | 22 ft | 11 kts | 303° |
| 2026-05-06 20:53 | 55.62321 | 12.64174 | 19 ft | 13 kts | 302° |
| 2026-05-06 20:53 | 55.62378 | 12.64024 | 22 ft | 16 kts | 304° |
| 2026-05-06 20:53 | 55.62432 | 12.63881 | 20 ft | 13 kts | 308° |
| 2026-05-06 20:53 | 55.62503 | 12.63791 | 22 ft | 12 kts | 338° |
| 2026-05-06 20:54 | 55.62587 | 12.63775 | 23 ft | 12 kts | 6° |
| 2026-05-06 20:54 | 55.62664 | 12.63827 | 24 ft | 12 kts | 32° |
| 2026-05-06 20:54 | 55.62733 | 12.63906 | 23 ft | 12 kts | 34° |
| 2026-05-06 20:54 | 55.62790 | 12.63972 | 23 ft | 8 kts | 33° |
| 2026-05-06 20:55 | 55.62828 | 12.64047 | 23 ft | 8 kts | 64° |
| 2026-05-06 20:55 | 55.62849 | 12.64138 | 25 ft | 7 kts | 66° |
| 2026-05-06 20:55 | 55.62859 | 12.64186 | 23 ft | 4 kts | 79° |
| 2026-05-06 20:55 | 55.62857 | 12.64233 | 23 ft | 4 kts | 99° |
| 2026-05-06 20:56 | 55.62856 | 12.64254 | 23 ft | 1 kts | 99° |
| 2026-05-06 20:56 | 55.62855 | 12.64256 | 23 ft | 0 kts | 99° |